sensor_id;sensor_type;location;lat;lon;timestamp;P1;durP1;ratioP1;P2;durP2;ratioP2
12429;SDS011;6279;42.192;24.326;2023-11-18T00:00:07;2.93;;;2.20;;
12429;SDS011;6279;42.192;24.326;2023-11-18T00:02:37;3.07;;;2.67;;
12429;SDS011;6279;42.192;24.326;2023-11-18T00:05:03;2.80;;;2.50;;
12429;SDS011;6279;42.192;24.326;2023-11-18T00:07:29;3.83;;;2.60;;
12429;SDS011;6279;42.192;24.326;2023-11-18T00:09:57;2.90;;;2.40;;
12429;SDS011;6279;42.192;24.326;2023-11-18T00:12:22;3.03;;;2.37;;
12429;SDS011;6279;42.192;24.326;2023-11-18T00:14:49;2.80;;;2.10;;
12429;SDS011;6279;42.192;24.326;2023-11-18T00:17:14;3.20;;;2.10;;
12429;SDS011;6279;42.192;24.326;2023-11-18T00:19:41;3.27;;;2.47;;
12429;SDS011;6279;42.192;24.326;2023-11-18T00:22:07;2.50;;;2.30;;
12429;SDS011;6279;42.192;24.326;2023-11-18T00:24:33;2.23;;;2.03;;
12429;SDS011;6279;42.192;24.326;2023-11-18T00:27:01;2.83;;;2.10;;
12429;SDS011;6279;42.192;24.326;2023-11-18T00:29:34;2.30;;;2.10;;
12429;SDS011;6279;42.192;24.326;2023-11-18T00:32:03;2.00;;;1.80;;
12429;SDS011;6279;42.192;24.326;2023-11-18T00:34:29;2.13;;;1.93;;
12429;SDS011;6279;42.192;24.326;2023-11-18T00:36:55;2.13;;;1.93;;
12429;SDS011;6279;42.192;24.326;2023-11-18T00:39:24;1.73;;;1.50;;
12429;SDS011;6279;42.192;24.326;2023-11-18T00:41:50;1.50;;;1.40;;
12429;SDS011;6279;42.192;24.326;2023-11-18T00:44:15;1.53;;;1.03;;
12429;SDS011;6279;42.192;24.326;2023-11-18T00:46:41;0.90;;;0.90;;
12429;SDS011;6279;42.192;24.326;2023-11-18T00:49:06;0.80;;;0.80;;
12429;SDS011;6279;42.192;24.326;2023-11-18T00:51:32;0.70;;;0.70;;
12429;SDS011;6279;42.192;24.326;2023-11-18T00:53:57;1.00;;;0.90;;
12429;SDS011;6279;42.192;24.326;2023-11-18T00:56:25;1.07;;;0.97;;
12429;SDS011;6279;42.192;24.326;2023-11-18T00:58:51;1.20;;;1.10;;
12429;SDS011;6279;42.192;24.326;2023-11-18T01:01:17;0.83;;;0.83;;
12429;SDS011;6279;42.192;24.326;2023-11-18T01:03:46;0.80;;;0.80;;
12429;SDS011;6279;42.192;24.326;2023-11-18T01:06:12;0.57;;;0.57;;
12429;SDS011;6279;42.192;24.326;2023-11-18T01:08:37;0.50;;;0.50;;
12429;SDS011;6279;42.192;24.326;2023-11-18T01:11:03;0.47;;;0.47;;
12429;SDS011;6279;42.192;24.326;2023-11-18T01:13:32;0.40;;;0.40;;
12429;SDS011;6279;42.192;24.326;2023-11-18T01:15:57;0.67;;;0.60;;
12429;SDS011;6279;42.192;24.326;2023-11-18T01:18:23;0.53;;;0.53;;
12429;SDS011;6279;42.192;24.326;2023-11-18T01:20:48;0.50;;;0.50;;
12429;SDS011;6279;42.192;24.326;2023-11-18T01:23:14;0.40;;;0.40;;
12429;SDS011;6279;42.192;24.326;2023-11-18T01:25:39;0.60;;;0.60;;
12429;SDS011;6279;42.192;24.326;2023-11-18T01:28:05;0.90;;;0.60;;
12429;SDS011;6279;42.192;24.326;2023-11-18T01:30:31;0.50;;;0.50;;
12429;SDS011;6279;42.192;24.326;2023-11-18T01:32:57;1.07;;;0.60;;
12429;SDS011;6279;42.192;24.326;2023-11-18T01:35:25;0.80;;;0.50;;
12429;SDS011;6279;42.192;24.326;2023-11-18T01:37:54;0.60;;;0.50;;
12429;SDS011;6279;42.192;24.326;2023-11-18T01:40:20;0.60;;;0.60;;
12429;SDS011;6279;42.192;24.326;2023-11-18T01:42:46;0.60;;;0.60;;
12429;SDS011;6279;42.192;24.326;2023-11-18T01:45:12;0.20;;;0.20;;
12429;SDS011;6279;42.192;24.326;2023-11-18T01:47:39;1.40;;;0.67;;
12429;SDS011;6279;42.192;24.326;2023-11-18T01:50:06;0.47;;;0.40;;
12429;SDS011;6279;42.192;24.326;2023-11-18T01:52:33;0.60;;;0.50;;
12429;SDS011;6279;42.192;24.326;2023-11-18T01:55:00;1.47;;;0.60;;
12429;SDS011;6279;42.192;24.326;2023-11-18T01:57:28;0.63;;;0.50;;
12429;SDS011;6279;42.192;24.326;2023-11-18T01:59:54;0.37;;;0.37;;
12429;SDS011;6279;42.192;24.326;2023-11-18T02:02:20;0.40;;;0.40;;
12429;SDS011;6279;42.192;24.326;2023-11-18T02:04:48;0.60;;;0.50;;
12429;SDS011;6279;42.192;24.326;2023-11-18T02:07:14;0.40;;;0.40;;
12429;SDS011;6279;42.192;24.326;2023-11-18T02:09:40;0.30;;;0.30;;
12429;SDS011;6279;42.192;24.326;2023-11-18T02:12:21;0.57;;;0.40;;
12429;SDS011;6279;42.192;24.326;2023-11-18T02:14:51;0.20;;;0.20;;
12429;SDS011;6279;42.192;24.326;2023-11-18T02:17:19;0.63;;;0.40;;
12429;SDS011;6279;42.192;24.326;2023-11-18T02:19:49;0.60;;;0.43;;
12429;SDS011;6279;42.192;24.326;2023-11-18T02:22:17;0.47;;;0.30;;
12429;SDS011;6279;42.192;24.326;2023-11-18T02:24:43;0.30;;;0.30;;
12429;SDS011;6279;42.192;24.326;2023-11-18T02:27:08;0.50;;;0.50;;
12429;SDS011;6279;42.192;24.326;2023-11-18T02:29:38;0.67;;;0.30;;
12429;SDS011;6279;42.192;24.326;2023-11-18T02:32:25;0.57;;;0.50;;
12429;SDS011;6279;42.192;24.326;2023-11-18T02:35:18;0.40;;;0.40;;
12429;SDS011;6279;42.192;24.326;2023-11-18T02:37:50;1.50;;;0.40;;
12429;SDS011;6279;42.192;24.326;2023-11-18T02:40:20;0.40;;;0.40;;
12429;SDS011;6279;42.192;24.326;2023-11-18T02:43:10;0.40;;;0.40;;
12429;SDS011;6279;42.192;24.326;2023-11-18T02:45:36;0.50;;;0.37;;
12429;SDS011;6279;42.192;24.326;2023-11-18T02:48:05;0.30;;;0.30;;
12429;SDS011;6279;42.192;24.326;2023-11-18T02:50:31;0.40;;;0.40;;
12429;SDS011;6279;42.192;24.326;2023-11-18T02:52:57;0.30;;;0.30;;
12429;SDS011;6279;42.192;24.326;2023-11-18T02:55:22;0.30;;;0.30;;
12429;SDS011;6279;42.192;24.326;2023-11-18T02:57:49;0.30;;;0.27;;
12429;SDS011;6279;42.192;24.326;2023-11-18T03:00:16;2.00;;;0.47;;
12429;SDS011;6279;42.192;24.326;2023-11-18T03:02:47;0.57;;;0.47;;
12429;SDS011;6279;42.192;24.326;2023-11-18T03:05:13;1.47;;;0.87;;
12429;SDS011;6279;42.192;24.326;2023-11-18T03:07:46;0.70;;;0.53;;
12429;SDS011;6279;42.192;24.326;2023-11-18T03:10:15;0.90;;;0.40;;
12429;SDS011;6279;42.192;24.326;2023-11-18T03:12:46;0.30;;;0.30;;
12429;SDS011;6279;42.192;24.326;2023-11-18T03:15:20;0.20;;;0.20;;
12429;SDS011;6279;42.192;24.326;2023-11-18T03:17:47;0.40;;;0.40;;
12429;SDS011;6279;42.192;24.326;2023-11-18T03:20:15;0.40;;;0.40;;
12429;SDS011;6279;42.192;24.326;2023-11-18T03:22:45;0.40;;;0.30;;
12429;SDS011;6279;42.192;24.326;2023-11-18T03:25:14;0.50;;;0.50;;
12429;SDS011;6279;42.192;24.326;2023-11-18T03:27:40;2.30;;;0.60;;
12429;SDS011;6279;42.192;24.326;2023-11-18T03:30:06;0.70;;;0.50;;
12429;SDS011;6279;42.192;24.326;2023-11-18T03:32:33;0.30;;;0.30;;
12429;SDS011;6279;42.192;24.326;2023-11-18T03:35:00;0.77;;;0.50;;
12429;SDS011;6279;42.192;24.326;2023-11-18T03:37:25;0.40;;;0.40;;
12429;SDS011;6279;42.192;24.326;2023-11-18T03:39:51;0.30;;;0.30;;
12429;SDS011;6279;42.192;24.326;2023-11-18T03:42:17;0.50;;;0.50;;
12429;SDS011;6279;42.192;24.326;2023-11-18T03:44:42;0.43;;;0.40;;
12429;SDS011;6279;42.192;24.326;2023-11-18T03:47:09;0.60;;;0.60;;
12429;SDS011;6279;42.192;24.326;2023-11-18T03:49:34;0.83;;;0.60;;
12429;SDS011;6279;42.192;24.326;2023-11-18T03:51:59;0.70;;;0.40;;
12429;SDS011;6279;42.192;24.326;2023-11-18T03:54:25;0.50;;;0.50;;
12429;SDS011;6279;42.192;24.326;2023-11-18T03:56:50;0.43;;;0.43;;
12429;SDS011;6279;42.192;24.326;2023-11-18T03:59:15;0.40;;;0.40;;
12429;SDS011;6279;42.192;24.326;2023-11-18T04:01:41;0.50;;;0.50;;
12429;SDS011;6279;42.192;24.326;2023-11-18T04:04:07;0.60;;;0.40;;
12429;SDS011;6279;42.192;24.326;2023-11-18T04:06:32;0.40;;;0.40;;
12429;SDS011;6279;42.192;24.326;2023-11-18T04:08:57;0.70;;;0.70;;
12429;SDS011;6279;42.192;24.326;2023-11-18T04:11:23;0.50;;;0.50;;
12429;SDS011;6279;42.192;24.326;2023-11-18T04:13:49;0.60;;;0.60;;
12429;SDS011;6279;42.192;24.326;2023-11-18T04:16:14;0.43;;;0.43;;
12429;SDS011;6279;42.192;24.326;2023-11-18T04:18:41;0.77;;;0.40;;
12429;SDS011;6279;42.192;24.326;2023-11-18T04:21:07;0.70;;;0.70;;
12429;SDS011;6279;42.192;24.326;2023-11-18T04:23:36;0.60;;;0.60;;
12429;SDS011;6279;42.192;24.326;2023-11-18T04:26:03;0.87;;;0.60;;
12429;SDS011;6279;42.192;24.326;2023-11-18T04:28:29;0.60;;;0.60;;
12429;SDS011;6279;42.192;24.326;2023-11-18T04:30:55;0.73;;;0.73;;
12429;SDS011;6279;42.192;24.326;2023-11-18T04:33:20;2.03;;;0.90;;
12429;SDS011;6279;42.192;24.326;2023-11-18T04:35:46;1.07;;;0.90;;
12429;SDS011;6279;42.192;24.326;2023-11-18T04:38:12;1.83;;;1.33;;
12429;SDS011;6279;42.192;24.326;2023-11-18T04:40:37;2.07;;;1.20;;
12429;SDS011;6279;42.192;24.326;2023-11-18T04:43:04;2.97;;;1.03;;
12429;SDS011;6279;42.192;24.326;2023-11-18T04:45:30;2.10;;;1.30;;
12429;SDS011;6279;42.192;24.326;2023-11-18T04:47:55;1.63;;;1.20;;
12429;SDS011;6279;42.192;24.326;2023-11-18T04:50:21;1.37;;;1.20;;
12429;SDS011;6279;42.192;24.326;2023-11-18T04:52:47;1.20;;;1.10;;
12429;SDS011;6279;42.192;24.326;2023-11-18T04:55:12;1.40;;;1.20;;
12429;SDS011;6279;42.192;24.326;2023-11-18T04:57:41;1.73;;;1.10;;
12429;SDS011;6279;42.192;24.326;2023-11-18T05:00:06;1.30;;;1.10;;
12429;SDS011;6279;42.192;24.326;2023-11-18T05:02:38;2.13;;;1.10;;
12429;SDS011;6279;42.192;24.326;2023-11-18T05:05:04;1.00;;;1.00;;
12429;SDS011;6279;42.192;24.326;2023-11-18T05:07:31;1.30;;;1.10;;
12429;SDS011;6279;42.192;24.326;2023-11-18T05:09:57;1.30;;;1.20;;
12429;SDS011;6279;42.192;24.326;2023-11-18T05:12:22;1.20;;;1.10;;
12429;SDS011;6279;42.192;24.326;2023-11-18T05:14:48;1.40;;;1.30;;
12429;SDS011;6279;42.192;24.326;2023-11-18T05:17:15;2.13;;;1.93;;
12429;SDS011;6279;42.192;24.326;2023-11-18T05:19:41;1.30;;;1.20;;
12429;SDS011;6279;42.192;24.326;2023-11-18T05:22:07;1.80;;;1.70;;
12429;SDS011;6279;42.192;24.326;2023-11-18T05:24:33;1.60;;;1.50;;
12429;SDS011;6279;42.192;24.326;2023-11-18T05:26:58;4.37;;;2.77;;
12429;SDS011;6279;42.192;24.326;2023-11-18T05:29:27;5.13;;;3.10;;
12429;SDS011;6279;42.192;24.326;2023-11-18T05:31:53;2.63;;;2.17;;
12429;SDS011;6279;42.192;24.326;2023-11-18T05:34:20;1.70;;;1.57;;
12429;SDS011;6279;42.192;24.326;2023-11-18T05:36:46;1.70;;;1.60;;
12429;SDS011;6279;42.192;24.326;2023-11-18T05:39:12;1.67;;;1.47;;
12429;SDS011;6279;42.192;24.326;2023-11-18T05:41:41;1.83;;;1.47;;
12429;SDS011;6279;42.192;24.326;2023-11-18T05:44:10;1.40;;;1.30;;
12429;SDS011;6279;42.192;24.326;2023-11-18T05:46:42;2.00;;;1.60;;
12429;SDS011;6279;42.192;24.326;2023-11-18T05:49:11;2.30;;;1.67;;
12429;SDS011;6279;42.192;24.326;2023-11-18T05:51:38;1.33;;;1.23;;
12429;SDS011;6279;42.192;24.326;2023-11-18T05:54:05;1.87;;;1.70;;
12429;SDS011;6279;42.192;24.326;2023-11-18T05:56:31;1.30;;;1.20;;
12429;SDS011;6279;42.192;24.326;2023-11-18T05:58:57;1.77;;;1.63;;
12429;SDS011;6279;42.192;24.326;2023-11-18T06:01:23;3.43;;;1.90;;
12429;SDS011;6279;42.192;24.326;2023-11-18T06:03:49;1.40;;;1.30;;
12429;SDS011;6279;42.192;24.326;2023-11-18T06:06:15;2.57;;;1.63;;
12429;SDS011;6279;42.192;24.326;2023-11-18T06:08:42;1.93;;;1.33;;
12429;SDS011;6279;42.192;24.326;2023-11-18T06:11:11;1.80;;;1.70;;
12429;SDS011;6279;42.192;24.326;2023-11-18T06:13:39;2.27;;;1.70;;
12429;SDS011;6279;42.192;24.326;2023-11-18T06:16:24;2.47;;;2.17;;
12429;SDS011;6279;42.192;24.326;2023-11-18T06:18:51;1.97;;;1.73;;
12429;SDS011;6279;42.192;24.326;2023-11-18T06:21:19;2.33;;;2.10;;
12429;SDS011;6279;42.192;24.326;2023-11-18T06:23:47;2.77;;;1.70;;
12429;SDS011;6279;42.192;24.326;2023-11-18T06:26:13;2.57;;;1.80;;
12429;SDS011;6279;42.192;24.326;2023-11-18T06:28:40;2.97;;;1.87;;
12429;SDS011;6279;42.192;24.326;2023-11-18T06:31:06;1.70;;;1.60;;
12429;SDS011;6279;42.192;24.326;2023-11-18T06:33:43;2.40;;;1.80;;
12429;SDS011;6279;42.192;24.326;2023-11-18T06:38:38;3.43;;;1.93;;
12429;SDS011;6279;42.192;24.326;2023-11-18T06:41:03;4.13;;;2.03;;
12429;SDS011;6279;42.192;24.326;2023-11-18T06:43:30;1.87;;;1.30;;
12429;SDS011;6279;42.192;24.326;2023-11-18T06:46:14;1.33;;;1.23;;
12429;SDS011;6279;42.192;24.326;2023-11-18T06:48:39;1.73;;;1.40;;
12429;SDS011;6279;42.192;24.326;2023-11-18T06:51:05;1.27;;;1.00;;
12429;SDS011;6279;42.192;24.326;2023-11-18T06:53:33;3.97;;;1.80;;
12429;SDS011;6279;42.192;24.326;2023-11-18T06:55:58;2.07;;;1.13;;
12429;SDS011;6279;42.192;24.326;2023-11-18T06:58:24;1.97;;;1.37;;
12429;SDS011;6279;42.192;24.326;2023-11-18T07:00:49;2.20;;;0.93;;
12429;SDS011;6279;42.192;24.326;2023-11-18T07:03:15;1.03;;;0.93;;
12429;SDS011;6279;42.192;24.326;2023-11-18T07:05:41;2.43;;;1.60;;
12429;SDS011;6279;42.192;24.326;2023-11-18T07:08:06;1.37;;;1.10;;
12429;SDS011;6279;42.192;24.326;2023-11-18T07:10:33;1.30;;;1.03;;
12429;SDS011;6279;42.192;24.326;2023-11-18T07:13:00;4.93;;;1.10;;
12429;SDS011;6279;42.192;24.326;2023-11-18T07:15:25;2.33;;;0.50;;
12429;SDS011;6279;42.192;24.326;2023-11-18T07:17:50;0.60;;;0.60;;
12429;SDS011;6279;42.192;24.326;2023-11-18T07:20:16;1.50;;;0.63;;
12429;SDS011;6279;42.192;24.326;2023-11-18T07:22:42;0.93;;;0.70;;
12429;SDS011;6279;42.192;24.326;2023-11-18T07:25:08;0.77;;;0.77;;
12429;SDS011;6279;42.192;24.326;2023-11-18T07:27:34;0.80;;;0.73;;
12429;SDS011;6279;42.192;24.326;2023-11-18T07:30:01;1.10;;;0.80;;
12429;SDS011;6279;42.192;24.326;2023-11-18T07:32:31;1.07;;;0.70;;
12429;SDS011;6279;42.192;24.326;2023-11-18T07:34:57;0.60;;;0.60;;
12429;SDS011;6279;42.192;24.326;2023-11-18T07:37:23;1.00;;;0.87;;
12429;SDS011;6279;42.192;24.326;2023-11-18T07:39:48;1.00;;;0.80;;
12429;SDS011;6279;42.192;24.326;2023-11-18T07:42:14;0.97;;;0.50;;
12429;SDS011;6279;42.192;24.326;2023-11-18T07:44:40;1.00;;;0.70;;
12429;SDS011;6279;42.192;24.326;2023-11-18T07:47:06;2.40;;;0.87;;
12429;SDS011;6279;42.192;24.326;2023-11-18T07:49:32;1.97;;;1.53;;
12429;SDS011;6279;42.192;24.326;2023-11-18T07:51:59;2.67;;;1.30;;
12429;SDS011;6279;42.192;24.326;2023-11-18T07:54:24;2.00;;;1.47;;
12429;SDS011;6279;42.192;24.326;2023-11-18T07:56:50;2.07;;;1.20;;
12429;SDS011;6279;42.192;24.326;2023-11-18T07:59:16;2.57;;;1.13;;
12429;SDS011;6279;42.192;24.326;2023-11-18T08:01:43;2.73;;;0.93;;
12429;SDS011;6279;42.192;24.326;2023-11-18T08:04:12;0.97;;;0.60;;
12429;SDS011;6279;42.192;24.326;2023-11-18T08:06:41;4.53;;;2.87;;
12429;SDS011;6279;42.192;24.326;2023-11-18T08:09:09;7.73;;;6.07;;
12429;SDS011;6279;42.192;24.326;2023-11-18T08:11:39;2.03;;;1.00;;
12429;SDS011;6279;42.192;24.326;2023-11-18T08:14:09;0.60;;;0.60;;
12429;SDS011;6279;42.192;24.326;2023-11-18T08:16:34;0.40;;;0.33;;
12429;SDS011;6279;42.192;24.326;2023-11-18T08:19:01;0.40;;;0.40;;
12429;SDS011;6279;42.192;24.326;2023-11-18T08:21:33;2.20;;;0.80;;
12429;SDS011;6279;42.192;24.326;2023-11-18T08:23:59;0.50;;;0.40;;
12429;SDS011;6279;42.192;24.326;2023-11-18T08:26:25;1.40;;;1.00;;
12429;SDS011;6279;42.192;24.326;2023-11-18T08:28:50;1.00;;;0.80;;
12429;SDS011;6279;42.192;24.326;2023-11-18T08:31:16;3.17;;;1.00;;
12429;SDS011;6279;42.192;24.326;2023-11-18T08:33:42;1.20;;;1.10;;
12429;SDS011;6279;42.192;24.326;2023-11-18T08:36:08;1.53;;;1.00;;
12429;SDS011;6279;42.192;24.326;2023-11-18T08:38:34;0.87;;;0.80;;
12429;SDS011;6279;42.192;24.326;2023-11-18T08:41:00;1.50;;;1.30;;
12429;SDS011;6279;42.192;24.326;2023-11-18T08:43:26;1.80;;;0.80;;
12429;SDS011;6279;42.192;24.326;2023-11-18T08:45:53;1.27;;;0.73;;
12429;SDS011;6279;42.192;24.326;2023-11-18T08:48:21;1.37;;;0.97;;
12429;SDS011;6279;42.192;24.326;2023-11-18T08:50:48;1.07;;;0.90;;
12429;SDS011;6279;42.192;24.326;2023-11-18T08:53:13;2.70;;;1.10;;
12429;SDS011;6279;42.192;24.326;2023-11-18T08:55:42;1.00;;;0.83;;
12429;SDS011;6279;42.192;24.326;2023-11-18T08:58:19;0.93;;;0.67;;
12429;SDS011;6279;42.192;24.326;2023-11-18T09:00:52;1.33;;;0.80;;
12429;SDS011;6279;42.192;24.326;2023-11-18T09:03:24;1.50;;;0.70;;
12429;SDS011;6279;42.192;24.326;2023-11-18T09:08:24;1.40;;;1.30;;
12429;SDS011;6279;42.192;24.326;2023-11-18T09:10:50;6.33;;;1.00;;
12429;SDS011;6279;42.192;24.326;2023-11-18T09:13:22;2.60;;;1.10;;
12429;SDS011;6279;42.192;24.326;2023-11-18T09:15:53;1.10;;;0.90;;
12429;SDS011;6279;42.192;24.326;2023-11-18T09:18:21;2.20;;;1.00;;
12429;SDS011;6279;42.192;24.326;2023-11-18T09:20:47;2.30;;;1.00;;
12429;SDS011;6279;42.192;24.326;2023-11-18T09:23:13;1.10;;;1.00;;
12429;SDS011;6279;42.192;24.326;2023-11-18T09:25:41;1.03;;;0.90;;
12429;SDS011;6279;42.192;24.326;2023-11-18T09:28:11;2.30;;;0.90;;
12429;SDS011;6279;42.192;24.326;2023-11-18T09:30:41;1.37;;;0.93;;
12429;SDS011;6279;42.192;24.326;2023-11-18T09:33:23;1.00;;;0.90;;
12429;SDS011;6279;42.192;24.326;2023-11-18T09:36:01;1.00;;;0.70;;
12429;SDS011;6279;42.192;24.326;2023-11-18T09:38:27;1.03;;;0.93;;
12429;SDS011;6279;42.192;24.326;2023-11-18T09:40:53;6.50;;;1.20;;
12429;SDS011;6279;42.192;24.326;2023-11-18T09:43:19;5.20;;;1.20;;
12429;SDS011;6279;42.192;24.326;2023-11-18T09:45:54;2.37;;;1.70;;
12429;SDS011;6279;42.192;24.326;2023-11-18T09:48:21;1.13;;;0.70;;
12429;SDS011;6279;42.192;24.326;2023-11-18T09:50:53;2.03;;;0.93;;
12429;SDS011;6279;42.192;24.326;2023-11-18T09:53:22;2.47;;;1.10;;
12429;SDS011;6279;42.192;24.326;2023-11-18T09:56:07;3.63;;;0.97;;
12429;SDS011;6279;42.192;24.326;2023-11-18T09:58:39;2.07;;;1.40;;
12429;SDS011;6279;42.192;24.326;2023-11-18T10:01:10;1.17;;;1.00;;
12429;SDS011;6279;42.192;24.326;2023-11-18T10:03:39;1.90;;;0.70;;
12429;SDS011;6279;42.192;24.326;2023-11-18T10:06:07;1.50;;;1.30;;
12429;SDS011;6279;42.192;24.326;2023-11-18T10:08:34;2.07;;;1.27;;
12429;SDS011;6279;42.192;24.326;2023-11-18T10:11:03;1.40;;;1.00;;
12429;SDS011;6279;42.192;24.326;2023-11-18T10:13:33;2.77;;;1.77;;
12429;SDS011;6279;42.192;24.326;2023-11-18T10:16:00;1.43;;;0.90;;
12429;SDS011;6279;42.192;24.326;2023-11-18T10:18:26;1.07;;;0.70;;
12429;SDS011;6279;42.192;24.326;2023-11-18T10:20:53;1.80;;;1.10;;
12429;SDS011;6279;42.192;24.326;2023-11-18T10:23:20;1.77;;;1.20;;
12429;SDS011;6279;42.192;24.326;2023-11-18T10:25:48;1.90;;;1.20;;
12429;SDS011;6279;42.192;24.326;2023-11-18T10:28:27;1.80;;;1.40;;
12429;SDS011;6279;42.192;24.326;2023-11-18T10:30:57;4.17;;;2.70;;
12429;SDS011;6279;42.192;24.326;2023-11-18T10:33:26;2.67;;;1.60;;
12429;SDS011;6279;42.192;24.326;2023-11-18T10:35:58;2.90;;;1.83;;
12429;SDS011;6279;42.192;24.326;2023-11-18T10:38:28;4.80;;;1.90;;
12429;SDS011;6279;42.192;24.326;2023-11-18T10:40:55;2.07;;;1.13;;
12429;SDS011;6279;42.192;24.326;2023-11-18T10:43:22;1.10;;;1.00;;
12429;SDS011;6279;42.192;24.326;2023-11-18T10:46:06;2.57;;;0.60;;
12429;SDS011;6279;42.192;24.326;2023-11-18T10:48:47;1.77;;;0.90;;
12429;SDS011;6279;42.192;24.326;2023-11-18T10:51:14;2.20;;;0.70;;
12429;SDS011;6279;42.192;24.326;2023-11-18T10:53:43;2.10;;;1.00;;
12429;SDS011;6279;42.192;24.326;2023-11-18T10:56:28;1.00;;;0.90;;
12429;SDS011;6279;42.192;24.326;2023-11-18T10:59:05;3.37;;;1.40;;
12429;SDS011;6279;42.192;24.326;2023-11-18T11:01:37;2.70;;;1.67;;
12429;SDS011;6279;42.192;24.326;2023-11-18T11:04:11;1.13;;;1.00;;
12429;SDS011;6279;42.192;24.326;2023-11-18T11:06:41;0.90;;;0.90;;
12429;SDS011;6279;42.192;24.326;2023-11-18T11:09:08;1.90;;;1.67;;
12429;SDS011;6279;42.192;24.326;2023-11-18T11:11:45;3.33;;;1.87;;
12429;SDS011;6279;42.192;24.326;2023-11-18T11:14:14;1.83;;;1.43;;
12429;SDS011;6279;42.192;24.326;2023-11-18T11:16:45;1.83;;;1.10;;
12429;SDS011;6279;42.192;24.326;2023-11-18T11:22:12;1.00;;;0.80;;
12429;SDS011;6279;42.192;24.326;2023-11-18T11:28:17;1.20;;;0.60;;
12429;SDS011;6279;42.192;24.326;2023-11-18T11:30:33;1.00;;;0.73;;
12429;SDS011;6279;42.192;24.326;2023-11-18T11:33:22;1.33;;;1.10;;
12429;SDS011;6279;42.192;24.326;2023-11-18T11:35:55;15.40;;;4.40;;
12429;SDS011;6279;42.192;24.326;2023-11-18T11:38:24;3.60;;;1.53;;
12429;SDS011;6279;42.192;24.326;2023-11-18T11:40:51;3.00;;;1.33;;
12429;SDS011;6279;42.192;24.326;2023-11-18T11:43:20;1.80;;;0.70;;
12429;SDS011;6279;42.192;24.326;2023-11-18T11:45:52;4.23;;;1.00;;
12429;SDS011;6279;42.192;24.326;2023-11-18T11:48:20;6.60;;;1.77;;
12429;SDS011;6279;42.192;24.326;2023-11-18T11:51:03;1.00;;;0.80;;
12429;SDS011;6279;42.192;24.326;2023-11-18T11:53:39;2.70;;;1.60;;
12429;SDS011;6279;42.192;24.326;2023-11-18T11:56:10;2.67;;;1.20;;
12429;SDS011;6279;42.192;24.326;2023-11-18T11:58:40;2.63;;;1.60;;
12429;SDS011;6279;42.192;24.326;2023-11-18T12:03:43;1.97;;;1.10;;
12429;SDS011;6279;42.192;24.326;2023-11-18T12:06:12;0.93;;;0.70;;
12429;SDS011;6279;42.192;24.326;2023-11-18T12:08:46;5.43;;;1.40;;
12429;SDS011;6279;42.192;24.326;2023-11-18T12:11:13;5.10;;;2.27;;
12429;SDS011;6279;42.192;24.326;2023-11-18T12:13:40;2.67;;;1.13;;
12429;SDS011;6279;42.192;24.326;2023-11-18T12:19:36;1.63;;;1.00;;
12429;SDS011;6279;42.192;24.326;2023-11-18T12:22:21;4.00;;;2.30;;
12429;SDS011;6279;42.192;24.326;2023-11-18T12:35:29;2.63;;;1.10;;
12429;SDS011;6279;42.192;24.326;2023-11-18T12:49:43;1.67;;;1.20;;
12429;SDS011;6279;42.192;24.326;2023-11-18T12:52:12;2.70;;;1.73;;
12429;SDS011;6279;42.192;24.326;2023-11-18T12:54:40;3.43;;;1.50;;
12429;SDS011;6279;42.192;24.326;2023-11-18T12:57:09;2.77;;;1.33;;
12429;SDS011;6279;42.192;24.326;2023-11-18T12:59:36;1.93;;;1.50;;
12429;SDS011;6279;42.192;24.326;2023-11-18T13:02:11;1.07;;;0.90;;
12429;SDS011;6279;42.192;24.326;2023-11-18T13:04:44;0.80;;;0.70;;
12429;SDS011;6279;42.192;24.326;2023-11-18T13:07:17;1.00;;;0.87;;
12429;SDS011;6279;42.192;24.326;2023-11-18T13:09:43;1.30;;;1.10;;
12429;SDS011;6279;42.192;24.326;2023-11-18T13:12:11;0.80;;;0.73;;
12429;SDS011;6279;42.192;24.326;2023-11-18T13:14:40;7.10;;;1.00;;
12429;SDS011;6279;42.192;24.326;2023-11-18T13:17:09;1.00;;;0.80;;
12429;SDS011;6279;42.192;24.326;2023-11-18T13:19:36;2.83;;;1.20;;
12429;SDS011;6279;42.192;24.326;2023-11-18T13:22:06;2.07;;;1.40;;
12429;SDS011;6279;42.192;24.326;2023-11-18T13:24:39;1.57;;;0.90;;
12429;SDS011;6279;42.192;24.326;2023-11-18T13:27:10;1.73;;;0.50;;
12429;SDS011;6279;42.192;24.326;2023-11-18T13:29:39;1.40;;;1.10;;
12429;SDS011;6279;42.192;24.326;2023-11-18T13:32:10;1.30;;;1.07;;
12429;SDS011;6279;42.192;24.326;2023-11-18T13:34:36;3.53;;;1.20;;
12429;SDS011;6279;42.192;24.326;2023-11-18T13:37:08;3.43;;;1.30;;
12429;SDS011;6279;42.192;24.326;2023-11-18T13:39:35;1.80;;;1.33;;
12429;SDS011;6279;42.192;24.326;2023-11-18T13:42:25;1.43;;;1.00;;
12429;SDS011;6279;42.192;24.326;2023-11-18T13:44:53;1.33;;;0.90;;
12429;SDS011;6279;42.192;24.326;2023-11-18T13:47:26;2.23;;;1.00;;
12429;SDS011;6279;42.192;24.326;2023-11-18T13:49:56;1.60;;;1.03;;
12429;SDS011;6279;42.192;24.326;2023-11-18T13:52:23;3.67;;;1.43;;
12429;SDS011;6279;42.192;24.326;2023-11-18T13:54:50;2.00;;;1.13;;
12429;SDS011;6279;42.192;24.326;2023-11-18T13:57:21;1.50;;;1.00;;
12429;SDS011;6279;42.192;24.326;2023-11-18T13:59:50;1.87;;;1.20;;
12429;SDS011;6279;42.192;24.326;2023-11-18T14:02:16;1.00;;;0.90;;
12429;SDS011;6279;42.192;24.326;2023-11-18T14:04:42;1.53;;;1.30;;
12429;SDS011;6279;42.192;24.326;2023-11-18T14:07:09;1.00;;;0.90;;
12429;SDS011;6279;42.192;24.326;2023-11-18T14:09:35;2.37;;;0.90;;
12429;SDS011;6279;42.192;24.326;2023-11-18T14:12:04;1.50;;;1.00;;
12429;SDS011;6279;42.192;24.326;2023-11-18T14:14:31;2.63;;;1.10;;
12429;SDS011;6279;42.192;24.326;2023-11-18T14:16:57;1.53;;;0.93;;
12429;SDS011;6279;42.192;24.326;2023-11-18T14:19:30;1.30;;;0.90;;
12429;SDS011;6279;42.192;24.326;2023-11-18T14:21:55;1.53;;;1.10;;
12429;SDS011;6279;42.192;24.326;2023-11-18T14:24:21;2.47;;;1.30;;
12429;SDS011;6279;42.192;24.326;2023-11-18T14:26:53;2.77;;;1.93;;
12429;SDS011;6279;42.192;24.326;2023-11-18T14:29:19;3.67;;;2.20;;
12429;SDS011;6279;42.192;24.326;2023-11-18T14:31:44;1.93;;;1.73;;
12429;SDS011;6279;42.192;24.326;2023-11-18T14:34:10;3.20;;;2.30;;
12429;SDS011;6279;42.192;24.326;2023-11-18T14:36:36;1.17;;;1.00;;
12429;SDS011;6279;42.192;24.326;2023-11-18T14:39:02;1.73;;;0.90;;
12429;SDS011;6279;42.192;24.326;2023-11-18T14:41:28;1.93;;;1.30;;
12429;SDS011;6279;42.192;24.326;2023-11-18T14:43:56;1.30;;;1.20;;
12429;SDS011;6279;42.192;24.326;2023-11-18T14:46:22;2.10;;;1.80;;
12429;SDS011;6279;42.192;24.326;2023-11-18T14:48:48;3.17;;;2.57;;
12429;SDS011;6279;42.192;24.326;2023-11-18T14:51:14;1.60;;;1.30;;
12429;SDS011;6279;42.192;24.326;2023-11-18T14:53:40;1.93;;;1.43;;
12429;SDS011;6279;42.192;24.326;2023-11-18T14:56:08;4.13;;;1.63;;
12429;SDS011;6279;42.192;24.326;2023-11-18T14:58:33;1.10;;;1.00;;
12429;SDS011;6279;42.192;24.326;2023-11-18T15:00:59;1.37;;;1.00;;
12429;SDS011;6279;42.192;24.326;2023-11-18T15:03:25;1.30;;;1.10;;
12429;SDS011;6279;42.192;24.326;2023-11-18T15:05:51;1.40;;;1.17;;
12429;SDS011;6279;42.192;24.326;2023-11-18T15:08:16;2.23;;;1.40;;
12429;SDS011;6279;42.192;24.326;2023-11-18T15:10:41;1.60;;;1.10;;
12429;SDS011;6279;42.192;24.326;2023-11-18T15:13:07;1.50;;;1.00;;
12429;SDS011;6279;42.192;24.326;2023-11-18T15:15:37;1.53;;;1.10;;
12429;SDS011;6279;42.192;24.326;2023-11-18T15:18:05;1.67;;;1.30;;
12429;SDS011;6279;42.192;24.326;2023-11-18T15:20:39;3.13;;;1.00;;
12429;SDS011;6279;42.192;24.326;2023-11-18T15:23:10;2.40;;;1.20;;
12429;SDS011;6279;42.192;24.326;2023-11-18T15:25:36;1.40;;;0.90;;
12429;SDS011;6279;42.192;24.326;2023-11-18T15:28:05;1.80;;;1.10;;
12429;SDS011;6279;42.192;24.326;2023-11-18T15:30:38;1.17;;;1.00;;
12429;SDS011;6279;42.192;24.326;2023-11-18T15:33:06;1.60;;;0.90;;